createdAt,value
2019-04-16T00:02:29.194Z,4.5
2019-04-16T00:05:30.358Z,4.5
2019-04-16T00:08:29.253Z,4.4
2019-04-16T00:11:29.140Z,4.5
2019-04-16T00:14:29.416Z,4.5
2019-04-16T00:17:29.138Z,4.5
2019-04-16T00:20:29.281Z,4.5
2019-04-16T00:23:29.048Z,4.6
2019-04-16T00:26:29.183Z,4.5
2019-04-16T00:29:34.126Z,4.5
2019-04-16T00:32:29.249Z,4.5
2019-04-16T00:35:29.059Z,4.5
2019-04-16T00:38:41.712Z,4.4
2019-04-16T00:41:29.149Z,4.4
2019-04-16T00:44:29.203Z,4.5
2019-04-16T00:47:29.285Z,4.5
2019-04-16T00:50:29.246Z,4.5
2019-04-16T00:53:29.285Z,4.5
2019-04-16T00:56:29.088Z,4.4
2019-04-16T00:59:29.217Z,4.5
2019-04-16T01:02:29.218Z,4.4
2019-04-16T01:05:29.154Z,4.4
2019-04-16T01:08:29.104Z,4.4
2019-04-16T01:11:29.314Z,4.4
2019-04-16T01:14:29.189Z,4.4
2019-04-16T01:17:29.203Z,4.3
2019-04-16T01:20:29.254Z,4.4
2019-04-16T01:23:29.092Z,4.5
2019-04-16T01:26:29.233Z,4.5
2019-04-16T01:29:35.013Z,4.4
2019-04-16T01:32:29.287Z,4.2
2019-04-16T01:35:29.023Z,4.2
2019-04-16T01:38:29.119Z,4.3
2019-04-16T01:41:29.155Z,4.3
2019-04-16T01:44:30.100Z,4.3
2019-04-16T01:47:29.232Z,4.4
2019-04-16T01:50:29.572Z,4.4
2019-04-16T01:53:29.111Z,4.4
2019-04-16T01:56:29.462Z,4.3
2019-04-16T01:59:29.080Z,4.3
2019-04-16T02:02:29.129Z,4.4
2019-04-16T02:05:29.038Z,4.4
2019-04-16T02:08:32.193Z,4.3
2019-04-16T02:11:29.148Z,4.3
2019-04-16T02:14:28.960Z,4.6
2019-04-16T02:17:29.056Z,4.5
2019-04-16T02:20:29.077Z,5.2
2019-04-16T02:23:29.080Z,4.8
2019-04-16T02:26:29.155Z,4.5
2019-04-16T02:29:31.014Z,4.3
2019-04-16T02:32:29.333Z,4.3
2019-04-16T02:35:29.522Z,4.4
2019-04-16T02:38:29.228Z,4.3
2019-04-16T02:41:29.160Z,4.4
2019-04-16T02:44:29.213Z,4.7
2019-04-16T02:47:29.500Z,4.3
2019-04-16T02:50:32.711Z,4.3
2019-04-16T02:53:29.139Z,4.3
2019-04-16T02:56:29.555Z,4.2
2019-04-16T02:59:29.011Z,4.3
2019-04-16T03:02:29.105Z,4.2
2019-04-16T03:05:30.181Z,4.2
2019-04-16T03:08:29.193Z,4.3
2019-04-16T03:11:29.280Z,4.3
2019-04-16T03:14:31.277Z,4.3
2019-04-16T03:17:29.118Z,4.2
2019-04-16T03:20:29.215Z,4.1
2019-04-16T03:23:28.851Z,4
2019-04-16T03:26:29.286Z,3.9
2019-04-16T03:29:31.693Z,4.1
2019-04-16T03:32:36.789Z,4.1
2019-04-16T03:35:29.119Z,4.1
2019-04-16T03:38:29.028Z,4.1
2019-04-16T03:41:29.060Z,4.1
2019-04-16T03:44:29.113Z,4
2019-04-16T03:47:29.019Z,4
2019-04-16T03:50:32.626Z,4
2019-04-16T03:53:29.143Z,4
2019-04-16T03:56:31.586Z,4.1
2019-04-16T03:59:32.433Z,4
2019-04-16T04:02:29.107Z,4
2019-04-16T04:05:29.150Z,3.9
2019-04-16T04:08:29.209Z,3.9
2019-04-16T04:11:29.240Z,3.9
2019-04-16T04:14:28.965Z,4
2019-04-16T04:17:29.090Z,3.9
2019-04-16T04:20:28.992Z,4.1
2019-04-16T04:23:29.807Z,4
2019-04-16T04:26:29.088Z,4.1
2019-04-16T04:29:29.243Z,3.9
2019-04-16T04:32:29.097Z,4.1
2019-04-16T04:35:29.013Z,3.9
2019-04-16T04:38:29.326Z,3.9
2019-04-16T04:41:29.042Z,3.9
2019-04-16T04:44:29.020Z,3.8
2019-04-16T04:47:29.131Z,3.8
2019-04-16T04:50:29.197Z,3.8
2019-04-16T04:53:29.132Z,4
2019-04-16T04:56:29.327Z,3.9
2019-04-16T04:59:29.228Z,3.8
2019-04-16T05:02:29.014Z,3.8
2019-04-16T05:05:29.265Z,3.8
2019-04-16T05:08:29.726Z,3.9
2019-04-16T05:11:29.089Z,3.8
2019-04-16T05:14:29.081Z,3.8
2019-04-16T05:17:29.116Z,3.9
2019-04-16T05:20:30.536Z,3.9
2019-04-16T05:23:29.156Z,3.8
2019-04-16T05:26:29.301Z,3.7
2019-04-16T05:29:29.103Z,3.7
2019-04-16T05:32:34.654Z,3.7
2019-04-16T05:35:29.095Z,3.7
2019-04-16T05:38:29.192Z,3.9
2019-04-16T05:41:29.153Z,3.8
2019-04-16T05:44:34.551Z,3.8
2019-04-16T05:47:28.953Z,3.8
2019-04-16T05:50:30.339Z,3.7
2019-04-16T05:53:29.204Z,3.7
2019-04-16T05:56:29.167Z,3.7
2019-04-16T05:59:34.834Z,3.8
2019-04-16T06:02:28.935Z,3.9
2019-04-16T06:05:29.299Z,8.7
2019-04-16T06:08:29.281Z,10.4
2019-04-16T06:11:36.985Z,11.4
2019-04-16T06:14:29.023Z,13.1
2019-04-16T06:17:33.190Z,13.2
2019-04-16T06:20:29.270Z,13.6
2019-04-16T06:23:33.110Z,12.1
2019-04-16T06:26:29.161Z,11.2
2019-04-16T06:29:29.818Z,11.2
2019-04-16T06:32:29.315Z,10.4
2019-04-16T06:35:44.286Z,9.9
2019-04-16T06:38:29.171Z,9.1
2019-04-16T06:41:48.750Z,8.6
2019-04-16T06:44:35.585Z,8.4
2019-04-16T06:47:29.101Z,7.9
2019-04-16T06:50:41.020Z,7.6
2019-04-16T06:53:31.277Z,7.6
2019-04-16T06:56:29.037Z,7.4
2019-04-16T06:59:31.323Z,7.4
2019-04-16T07:02:28.976Z,7.1
2019-04-16T07:05:33.622Z,7
2019-04-16T07:08:42.246Z,6.9
2019-04-16T07:11:29.148Z,6.6
2019-04-16T07:14:29.567Z,6.8
2019-04-16T07:17:34.888Z,6.6
2019-04-16T07:20:29.760Z,6.7
2019-04-16T07:23:29.811Z,6.3
2019-04-16T07:26:29.910Z,6.6
2019-04-16T07:29:35.161Z,6.4
2019-04-16T07:32:29.752Z,6.2
2019-04-16T07:35:29.600Z,6
2019-04-16T07:38:28.904Z,5.9
2019-04-16T07:41:29.086Z,5.8
2019-04-16T07:44:29.124Z,5.9
2019-04-16T07:47:28.991Z,6.1
2019-04-16T07:50:33.588Z,5.9
2019-04-16T07:53:29.264Z,5.8
2019-04-16T07:56:29.172Z,5.7
2019-04-16T07:59:33.376Z,5.8
2019-04-16T08:02:29.004Z,5.7
2019-04-16T08:05:29.154Z,5.7
2019-04-16T08:08:29.114Z,5.6
2019-04-16T08:11:29.037Z,5.6
2019-04-16T08:14:28.937Z,5.6
2019-04-16T08:17:29.163Z,5.5
2019-04-16T08:20:29.123Z,5.6
2019-04-16T08:23:28.906Z,5.6
2019-04-16T08:26:28.990Z,5.4
2019-04-16T08:29:29.056Z,5.4
2019-04-16T08:32:29.149Z,5.3
2019-04-16T08:35:29.091Z,5.3
2019-04-16T08:38:35.259Z,5.5
2019-04-16T08:41:29.257Z,5.3
2019-04-16T08:44:28.924Z,5.1
2019-04-16T08:47:28.793Z,5.3
2019-04-16T08:50:28.932Z,5.2
2019-04-16T08:53:28.975Z,5.1
2019-04-16T08:56:28.983Z,5.2
2019-04-16T08:59:29.130Z,5.3
2019-04-16T09:02:29.258Z,5.4
2019-04-16T09:05:29.125Z,5.3
2019-04-16T09:08:28.910Z,5.1
2019-04-16T09:11:29.065Z,5.2
2019-04-16T09:14:29.126Z,5.2
2019-04-16T09:17:29.100Z,5.2
2019-04-16T09:20:29.091Z,5.2
2019-04-16T09:23:29.176Z,5.6
2019-04-16T09:26:29.505Z,5.4
2019-04-16T09:29:28.832Z,5.1
2019-04-16T09:32:28.903Z,5.1
2019-04-16T09:35:28.906Z,4.9
2019-04-16T09:38:28.932Z,5.1
2019-04-16T09:41:28.971Z,5
2019-04-16T09:44:36.408Z,5
2019-04-16T09:47:33.758Z,4.8
2019-04-16T09:50:29.078Z,4.9
2019-04-16T09:53:41.216Z,4.8
2019-04-16T09:56:31.042Z,4.9
2019-04-16T09:59:29.046Z,4.8
2019-04-16T10:02:29.048Z,4.8
2019-04-16T10:05:30.530Z,4.8
2019-04-16T10:08:30.195Z,5
2019-04-16T10:11:29.342Z,4.8
2019-04-16T10:14:28.906Z,4.7
2019-04-16T10:17:29.289Z,4.8
2019-04-16T10:20:29.301Z,4.8
2019-04-16T10:23:29.270Z,4.9
2019-04-16T10:26:29.266Z,4.7
2019-04-16T10:29:29.473Z,4.7
2019-04-16T10:32:29.225Z,4.9
2019-04-16T10:35:28.989Z,4.8
2019-04-16T10:38:29.005Z,4.7
2019-04-16T10:41:29.519Z,4.6
2019-04-16T10:44:29.554Z,4.6
2019-04-16T10:47:29.182Z,4.6
2019-04-16T10:50:29.220Z,4.6
2019-04-16T10:53:29.166Z,4.6
2019-04-16T10:56:29.027Z,4.7
2019-04-16T10:59:28.912Z,4.7
2019-04-16T11:02:29.622Z,4.7
2019-04-16T11:05:29.132Z,4.6
2019-04-16T11:08:29.118Z,4.6
2019-04-16T11:11:29.220Z,4.6
2019-04-16T11:14:29.110Z,4.7
2019-04-16T11:17:29.718Z,4.5
2019-04-16T11:20:29.332Z,4.5
2019-04-16T11:23:29.339Z,4.5
2019-04-16T11:26:28.892Z,4.5
2019-04-16T11:29:29.151Z,4.5
2019-04-16T11:32:29.421Z,4.5
2019-04-16T11:35:29.589Z,4.6
2019-04-16T11:38:29.165Z,4.5
2019-04-16T11:41:29.302Z,4.4
2019-04-16T11:44:29.459Z,4.4
2019-04-16T11:47:35.504Z,4.4
2019-04-16T11:50:29.411Z,4.4
2019-04-16T11:53:29.182Z,4.2
2019-04-16T11:56:29.385Z,4.3
2019-04-16T11:59:29.462Z,4.2
2019-04-16T12:02:29.625Z,4.1
2019-04-16T12:05:29.512Z,4.2
2019-04-16T12:08:29.423Z,4.4
2019-04-16T12:11:29.428Z,4.4
2019-04-16T12:14:43.827Z,4.2
2019-04-16T12:17:29.692Z,4.2
2019-04-16T12:20:29.841Z,4.2
2019-04-16T12:23:30.015Z,4.2
2019-04-16T12:26:29.287Z,4.4
2019-04-16T12:29:29.253Z,4.3
2019-04-16T12:32:29.542Z,4.2
2019-04-16T12:35:36.608Z,4.1
2019-04-16T12:38:29.547Z,4.2
2019-04-16T12:41:29.711Z,4
2019-04-16T12:44:46.602Z,4.1
2019-04-16T12:47:29.508Z,4.3
2019-04-16T12:50:30.164Z,4.2
2019-04-16T12:53:29.460Z,4
2019-04-16T12:56:29.327Z,4.1
2019-04-16T12:59:28.919Z,4
2019-04-16T13:02:28.765Z,4.1
2019-04-16T13:05:29.091Z,4.1
2019-04-16T13:08:29.141Z,4.1
2019-04-16T13:11:36.330Z,3.9
2019-04-16T13:14:28.791Z,3.8
2019-04-16T13:17:28.986Z,4
2019-04-16T13:20:30.508Z,3.8
2019-04-16T13:23:28.873Z,3.8
2019-04-16T13:26:28.755Z,3.9
2019-04-16T13:29:30.942Z,3.8
2019-04-16T13:32:29.053Z,3.8
2019-04-16T13:35:28.893Z,3.8
2019-04-16T13:38:28.882Z,3.8
2019-04-16T13:41:28.926Z,3.8
2019-04-16T13:44:28.998Z,3.8
2019-04-16T13:47:29.137Z,3.7
2019-04-16T13:50:28.940Z,3.8
2019-04-16T13:53:30.287Z,3.8
2019-04-16T13:56:28.692Z,3.7
2019-04-16T13:59:31.681Z,3.6
2019-04-16T14:02:28.886Z,3.6
2019-04-16T14:05:28.924Z,3.7
2019-04-16T14:08:28.880Z,3.7
2019-04-16T14:11:28.877Z,3.7
2019-04-16T14:14:29.074Z,3.6
2019-04-16T14:17:28.882Z,3.7
2019-04-16T14:20:28.773Z,3.6
2019-04-16T14:23:28.857Z,3.6
2019-04-16T14:26:29.010Z,3.7
2019-04-16T14:29:28.935Z,3.7
2019-04-16T14:32:28.911Z,3.5
2019-04-16T14:35:34.358Z,3.5
2019-04-16T14:38:29.205Z,3.5
2019-04-16T14:41:28.757Z,3.6
2019-04-16T14:44:35.381Z,3.6
2019-04-16T14:47:38.667Z,3.5
2019-04-16T14:50:28.883Z,3.5
2019-04-16T14:53:29.175Z,3.4
2019-04-16T14:56:28.912Z,3.4
2019-04-16T14:59:35.960Z,3.4
2019-04-16T15:02:30.420Z,3.5
2019-04-16T15:05:28.790Z,3.6
2019-04-16T15:08:28.790Z,3.5
2019-04-16T15:11:29.048Z,3.5
2019-04-16T15:14:29.038Z,3.5
2019-04-16T15:17:30.785Z,3.5
2019-04-16T15:20:28.911Z,3.5
2019-04-16T15:23:28.802Z,3.4
2019-04-16T15:26:28.827Z,3.3
2019-04-16T15:29:28.750Z,3.3
2019-04-16T15:32:28.898Z,3.3
2019-04-16T15:35:28.939Z,3.3
2019-04-16T15:38:30.743Z,3.3
2019-04-16T15:41:28.923Z,3.3
2019-04-16T15:44:32.740Z,3.4
2019-04-16T15:47:33.186Z,3.3
2019-04-16T15:50:28.813Z,3.4
2019-04-16T15:53:28.836Z,3.4
2019-04-16T15:56:28.931Z,3.4
2019-04-16T15:59:28.970Z,3.4
2019-04-16T16:02:28.968Z,3.4
2019-04-16T16:05:28.823Z,3.2
2019-04-16T16:08:36.365Z,3.3
2019-04-16T16:11:28.695Z,3.2
2019-04-16T16:14:39.433Z,3.3
2019-04-16T16:17:28.818Z,3.2
2019-04-16T16:20:28.897Z,3.1
2019-04-16T16:23:34.641Z,3.2
2019-04-16T16:26:28.846Z,3.3
2019-04-16T16:29:28.814Z,3.3
2019-04-16T16:32:28.850Z,3.2
2019-04-16T16:35:28.942Z,3.3
2019-04-16T16:38:28.738Z,3.2
2019-04-16T16:41:28.978Z,3.4
2019-04-16T16:44:28.923Z,3.3
2019-04-16T16:47:28.902Z,3.3
2019-04-16T16:50:28.685Z,3.2
2019-04-16T16:53:28.717Z,3.1
2019-04-16T16:56:29.073Z,3.2
2019-04-16T16:59:28.692Z,3.2
2019-04-16T17:02:28.851Z,3.3
2019-04-16T17:05:28.904Z,3.2
2019-04-16T17:08:31.380Z,3.1
2019-04-16T17:11:28.709Z,3.2
2019-04-16T17:14:28.794Z,3.2
2019-04-16T17:17:28.762Z,3.2
2019-04-16T17:20:28.902Z,3.1
2019-04-16T17:23:28.692Z,3.2
2019-04-16T17:26:29.138Z,3.1
2019-04-16T17:29:28.887Z,3
2019-04-16T17:32:29.002Z,3.1
2019-04-16T17:35:28.681Z,3
2019-04-16T17:38:28.750Z,3.2
2019-04-16T17:41:28.768Z,3.1
2019-04-16T17:44:28.937Z,3
2019-04-16T17:47:33.991Z,3
2019-04-16T17:50:28.868Z,2.9
2019-04-16T17:53:28.921Z,2.9
2019-04-16T17:56:28.730Z,3.1
2019-04-16T17:59:30.630Z,3
2019-04-16T18:02:29.238Z,3
2019-04-16T18:05:28.810Z,3.2
2019-04-16T18:08:28.904Z,3
2019-04-16T18:11:28.963Z,3
2019-04-16T18:14:28.827Z,3.1
2019-04-16T18:17:29.420Z,3.1
2019-04-16T18:20:28.828Z,3.1
2019-04-16T18:23:28.742Z,3.1
2019-04-16T18:26:28.894Z,3.1
2019-04-16T18:29:33.426Z,3.1
2019-04-16T18:32:32.307Z,3.1
2019-04-16T18:35:28.660Z,3.1
2019-04-16T18:38:28.771Z,3.1
2019-04-16T18:41:28.966Z,3
2019-04-16T18:44:29.957Z,3.1
2019-04-16T18:47:28.651Z,3
2019-04-16T18:50:28.884Z,2.9
2019-04-16T18:53:28.910Z,2.8
2019-04-16T18:56:28.774Z,2.9
2019-04-16T18:59:28.530Z,2.9
2019-04-16T19:02:28.807Z,3
2019-04-16T19:05:28.924Z,2.9
2019-04-16T19:08:42.743Z,3
2019-04-16T19:11:28.875Z,3
2019-04-16T19:14:28.883Z,3.1
2019-04-16T19:17:28.693Z,3.1
2019-04-16T19:20:28.582Z,3
2019-04-16T19:23:28.755Z,3
2019-04-16T19:26:30.986Z,3
2019-04-16T19:29:28.799Z,3
2019-04-16T19:32:35.499Z,3
2019-04-16T19:35:28.708Z,3
2019-04-16T19:38:28.899Z,2.9
2019-04-16T19:41:28.653Z,3
2019-04-16T19:44:28.883Z,3
2019-04-16T19:47:28.780Z,3
2019-04-16T19:50:38.917Z,3
2019-04-16T19:53:28.840Z,3
2019-04-16T19:56:28.591Z,3.3
2019-04-16T19:59:28.590Z,3.2
2019-04-16T20:02:34.382Z,3
2019-04-16T20:05:30.685Z,3.2
2019-04-16T20:08:40.429Z,3.3
2019-04-16T20:11:28.581Z,3.3
2019-04-16T20:14:28.970Z,3.2
2019-04-16T20:17:28.689Z,3.2
2019-04-16T20:20:28.522Z,3.2
2019-04-16T20:23:28.973Z,3
2019-04-16T20:26:33.911Z,3
2019-04-16T20:29:28.973Z,3.4
2019-04-16T20:32:35.335Z,3.5
2019-04-16T20:35:28.716Z,3.2
2019-04-16T20:38:30.539Z,3.2
2019-04-16T20:41:28.851Z,3.3
2019-04-16T20:44:28.875Z,3.3
2019-04-16T20:47:29.037Z,3
2019-04-16T20:50:28.904Z,2.9
2019-04-16T20:53:28.815Z,2.9
2019-04-16T20:56:28.920Z,2.8
2019-04-16T20:59:28.876Z,2.9
2019-04-16T21:02:28.676Z,2.8
2019-04-16T21:05:28.642Z,2.9
2019-04-16T21:08:29.101Z,2.9
2019-04-16T21:11:28.763Z,3
2019-04-16T21:14:29.087Z,2.9
2019-04-16T21:17:28.616Z,3
2019-04-16T21:20:28.635Z,3
2019-04-16T21:23:28.611Z,2.8
2019-04-16T21:26:28.716Z,2.8
2019-04-16T21:29:35.089Z,2.7
2019-04-16T21:32:31.885Z,2.8
2019-04-16T21:35:33.092Z,2.8
2019-04-16T21:38:28.487Z,2.8
2019-04-16T21:41:29.981Z,2.8
2019-04-16T21:44:28.670Z,2.8
2019-04-16T21:47:28.581Z,2.8
2019-04-16T21:50:28.688Z,2.9
2019-04-16T21:53:29.286Z,2.8
2019-04-16T21:56:31.426Z,2.7
2019-04-16T21:59:28.469Z,2.8
2019-04-16T22:02:28.798Z,2.8
2019-04-16T22:05:28.706Z,2.7
2019-04-16T22:08:30.687Z,2.8
2019-04-16T22:11:28.897Z,2.8
2019-04-16T22:14:28.812Z,2.8
2019-04-16T22:17:28.540Z,2.8
2019-04-16T22:20:36.786Z,2.8
2019-04-16T22:23:28.539Z,2.8
2019-04-16T22:26:35.861Z,2.9
2019-04-16T22:29:28.713Z,2.8
2019-04-16T22:32:31.755Z,2.7
2019-04-16T22:35:32.622Z,2.7
2019-04-16T22:38:28.592Z,2.7
2019-04-16T22:41:28.693Z,2.6
2019-04-16T22:44:28.873Z,2.6
2019-04-16T22:47:28.558Z,2.7
2019-04-16T22:50:28.745Z,2.6
2019-04-16T22:53:28.492Z,2.6
2019-04-16T22:56:29.506Z,2.7
2019-04-16T22:59:28.632Z,2.7
2019-04-16T23:02:28.669Z,2.6
2019-04-16T23:05:32.406Z,2.7
2019-04-16T23:08:28.771Z,2.6
2019-04-16T23:11:28.496Z,2.6
2019-04-16T23:14:35.830Z,2.6
2019-04-16T23:17:28.685Z,2.6
2019-04-16T23:20:37.379Z,2.7
2019-04-16T23:23:28.769Z,2.6
2019-04-16T23:26:33.681Z,2.6
2019-04-16T23:29:28.778Z,2.5
2019-04-16T23:32:29.355Z,2.5
2019-04-16T23:35:28.569Z,2.5
2019-04-16T23:38:32.845Z,2.5
2019-04-16T23:41:28.639Z,2.5
2019-04-16T23:44:28.641Z,2.6
2019-04-16T23:47:28.514Z,2.5
2019-04-16T23:50:45.907Z,2.5
2019-04-16T23:53:28.570Z,2.5
2019-04-16T23:56:28.526Z,2.5
2019-04-16T23:59:28.522Z,2.5
